sensor_id;sensor_type;location;lat;lon;timestamp;P1;durP1;ratioP1;P2;durP2;ratioP2
14276;SDS011;7222;57.346;12.150;2022-09-09T00:02:24;2.30;;;1.33;;
14276;SDS011;7222;57.346;12.150;2022-09-09T00:04:58;1.37;;;1.27;;
14276;SDS011;7222;57.346;12.150;2022-09-09T00:07:37;1.77;;;1.50;;
14276;SDS011;7222;57.346;12.150;2022-09-09T00:10:14;1.40;;;1.30;;
14276;SDS011;7222;57.346;12.150;2022-09-09T00:12:49;1.40;;;1.30;;
14276;SDS011;7222;57.346;12.150;2022-09-09T00:15:22;1.50;;;1.40;;
14276;SDS011;7222;57.346;12.150;2022-09-09T00:17:53;1.13;;;1.13;;
14276;SDS011;7222;57.346;12.150;2022-09-09T00:20:27;2.20;;;1.30;;
14276;SDS011;7222;57.346;12.150;2022-09-09T00:23:00;1.50;;;1.40;;
14276;SDS011;7222;57.346;12.150;2022-09-09T00:25:34;1.30;;;1.20;;
14276;SDS011;7222;57.346;12.150;2022-09-09T00:28:11;2.13;;;1.50;;
14276;SDS011;7222;57.346;12.150;2022-09-09T00:30:43;1.77;;;1.20;;
14276;SDS011;7222;57.346;12.150;2022-09-09T00:33:13;1.47;;;1.37;;
14276;SDS011;7222;57.346;12.150;2022-09-09T00:35:46;2.47;;;1.37;;
14276;SDS011;7222;57.346;12.150;2022-09-09T00:38:17;2.63;;;1.40;;
14276;SDS011;7222;57.346;12.150;2022-09-09T00:40:49;1.77;;;1.37;;
14276;SDS011;7222;57.346;12.150;2022-09-09T00:43:24;2.50;;;1.50;;
14276;SDS011;7222;57.346;12.150;2022-09-09T00:46:14;2.50;;;1.50;;
14276;SDS011;7222;57.346;12.150;2022-09-09T00:49:08;1.97;;;1.50;;
14276;SDS011;7222;57.346;12.150;2022-09-09T00:51:48;2.20;;;1.40;;
14276;SDS011;7222;57.346;12.150;2022-09-09T00:54:27;2.30;;;1.40;;
14276;SDS011;7222;57.346;12.150;2022-09-09T00:57:13;1.80;;;1.40;;
14276;SDS011;7222;57.346;12.150;2022-09-09T00:59:50;2.80;;;1.93;;
14276;SDS011;7222;57.346;12.150;2022-09-09T01:02:21;1.20;;;1.20;;
14276;SDS011;7222;57.346;12.150;2022-09-09T01:04:54;1.30;;;1.20;;
14276;SDS011;7222;57.346;12.150;2022-09-09T01:07:25;1.53;;;1.43;;
14276;SDS011;7222;57.346;12.150;2022-09-09T01:09:54;1.50;;;1.40;;
14276;SDS011;7222;57.346;12.150;2022-09-09T01:12:28;1.97;;;1.50;;
14276;SDS011;7222;57.346;12.150;2022-09-09T01:15:03;1.53;;;1.43;;
14276;SDS011;7222;57.346;12.150;2022-09-09T01:17:39;1.80;;;1.30;;
14276;SDS011;7222;57.346;12.150;2022-09-09T01:20:19;1.70;;;1.60;;
14276;SDS011;7222;57.346;12.150;2022-09-09T01:22:56;1.70;;;1.60;;
14276;SDS011;7222;57.346;12.150;2022-09-09T01:28:39;2.03;;;1.40;;
14276;SDS011;7222;57.346;12.150;2022-09-09T01:31:09;1.60;;;1.50;;
14276;SDS011;7222;57.346;12.150;2022-09-09T01:33:40;1.90;;;1.73;;
14276;SDS011;7222;57.346;12.150;2022-09-09T01:36:08;3.83;;;1.60;;
14276;SDS011;7222;57.346;12.150;2022-09-09T01:38:37;1.60;;;1.50;;
14276;SDS011;7222;57.346;12.150;2022-09-09T01:41:05;2.03;;;1.70;;
14276;SDS011;7222;57.346;12.150;2022-09-09T01:43:33;1.50;;;1.40;;
14276;SDS011;7222;57.346;12.150;2022-09-09T01:46:01;1.50;;;1.33;;
14276;SDS011;7222;57.346;12.150;2022-09-09T01:48:28;1.57;;;1.43;;
14276;SDS011;7222;57.346;12.150;2022-09-09T01:50:56;1.77;;;1.67;;
14276;SDS011;7222;57.346;12.150;2022-09-09T01:53:23;1.57;;;1.47;;
14276;SDS011;7222;57.346;12.150;2022-09-09T01:55:53;1.53;;;1.30;;
14276;SDS011;7222;57.346;12.150;2022-09-09T01:58:32;1.47;;;1.40;;
14276;SDS011;7222;57.346;12.150;2022-09-09T02:01:08;2.10;;;1.70;;
14276;SDS011;7222;57.346;12.150;2022-09-09T02:03:43;1.70;;;1.60;;
14276;SDS011;7222;57.346;12.150;2022-09-09T02:06:19;1.33;;;1.30;;
14276;SDS011;7222;57.346;12.150;2022-09-09T02:08:53;3.17;;;1.50;;
14276;SDS011;7222;57.346;12.150;2022-09-09T02:11:23;2.60;;;1.40;;
14276;SDS011;7222;57.346;12.150;2022-09-09T02:13:53;1.63;;;1.53;;
14276;SDS011;7222;57.346;12.150;2022-09-09T02:16:23;2.97;;;1.80;;
14276;SDS011;7222;57.346;12.150;2022-09-09T02:18:55;2.50;;;1.93;;
14276;SDS011;7222;57.346;12.150;2022-09-09T02:21:27;1.60;;;1.50;;
14276;SDS011;7222;57.346;12.150;2022-09-09T02:23:56;2.17;;;1.80;;
14276;SDS011;7222;57.346;12.150;2022-09-09T02:26:29;1.80;;;1.60;;
14276;SDS011;7222;57.346;12.150;2022-09-09T02:29:02;1.60;;;1.50;;
14276;SDS011;7222;57.346;12.150;2022-09-09T02:31:34;5.80;;;2.23;;
14276;SDS011;7222;57.346;12.150;2022-09-09T02:34:03;2.03;;;1.77;;
14276;SDS011;7222;57.346;12.150;2022-09-09T02:36:32;2.13;;;1.93;;
14276;SDS011;7222;57.346;12.150;2022-09-09T02:39:01;2.30;;;1.80;;
14276;SDS011;7222;57.346;12.150;2022-09-09T02:41:31;1.73;;;1.63;;
14276;SDS011;7222;57.346;12.150;2022-09-09T02:43:59;1.73;;;1.40;;
14276;SDS011;7222;57.346;12.150;2022-09-09T02:46:32;2.40;;;1.80;;
14276;SDS011;7222;57.346;12.150;2022-09-09T02:49:09;1.87;;;1.77;;
14276;SDS011;7222;57.346;12.150;2022-09-09T02:51:39;3.00;;;2.37;;
14276;SDS011;7222;57.346;12.150;2022-09-09T02:54:14;3.20;;;1.80;;
14276;SDS011;7222;57.346;12.150;2022-09-09T02:56:47;2.13;;;1.57;;
14276;SDS011;7222;57.346;12.150;2022-09-09T02:59:20;1.80;;;1.70;;
14276;SDS011;7222;57.346;12.150;2022-09-09T03:01:47;2.10;;;1.80;;
14276;SDS011;7222;57.346;12.150;2022-09-09T03:04:14;1.67;;;1.57;;
14276;SDS011;7222;57.346;12.150;2022-09-09T03:06:42;2.60;;;1.93;;
14276;SDS011;7222;57.346;12.150;2022-09-09T03:09:09;1.70;;;1.60;;
14276;SDS011;7222;57.346;12.150;2022-09-09T03:11:36;1.87;;;1.77;;
14276;SDS011;7222;57.346;12.150;2022-09-09T03:14:04;2.03;;;1.83;;
14276;SDS011;7222;57.346;12.150;2022-09-09T03:16:32;2.20;;;1.70;;
14276;SDS011;7222;57.346;12.150;2022-09-09T03:18:59;2.10;;;1.90;;
14276;SDS011;7222;57.346;12.150;2022-09-09T03:21:26;3.40;;;1.70;;
14276;SDS011;7222;57.346;12.150;2022-09-09T03:23:53;2.43;;;1.90;;
14276;SDS011;7222;57.346;12.150;2022-09-09T03:26:20;2.33;;;2.07;;
14276;SDS011;7222;57.346;12.150;2022-09-09T03:28:48;1.83;;;1.73;;
14276;SDS011;7222;57.346;12.150;2022-09-09T03:31:15;1.70;;;1.60;;
14276;SDS011;7222;57.346;12.150;2022-09-09T03:33:43;2.70;;;1.60;;
14276;SDS011;7222;57.346;12.150;2022-09-09T03:36:10;1.93;;;1.80;;
14276;SDS011;7222;57.346;12.150;2022-09-09T03:38:37;1.97;;;1.87;;
14276;SDS011;7222;57.346;12.150;2022-09-09T03:41:04;2.07;;;1.80;;
14276;SDS011;7222;57.346;12.150;2022-09-09T03:43:32;1.97;;;1.60;;
14276;SDS011;7222;57.346;12.150;2022-09-09T03:46:00;1.80;;;1.60;;
14276;SDS011;7222;57.346;12.150;2022-09-09T03:48:27;1.70;;;1.60;;
14276;SDS011;7222;57.346;12.150;2022-09-09T03:50:55;3.00;;;1.50;;
14276;SDS011;7222;57.346;12.150;2022-09-09T03:53:23;1.87;;;1.63;;
14276;SDS011;7222;57.346;12.150;2022-09-09T03:55:51;1.97;;;1.60;;
14276;SDS011;7222;57.346;12.150;2022-09-09T03:58:20;1.93;;;1.80;;
14276;SDS011;7222;57.346;12.150;2022-09-09T04:00:55;2.10;;;1.90;;
14276;SDS011;7222;57.346;12.150;2022-09-09T04:03:23;1.60;;;1.40;;
14276;SDS011;7222;57.346;12.150;2022-09-09T04:05:51;1.90;;;1.80;;
14276;SDS011;7222;57.346;12.150;2022-09-09T04:08:19;2.90;;;1.70;;
14276;SDS011;7222;57.346;12.150;2022-09-09T04:10:47;4.83;;;1.77;;
14276;SDS011;7222;57.346;12.150;2022-09-09T04:13:16;3.23;;;2.13;;
14276;SDS011;7222;57.346;12.150;2022-09-09T04:15:48;2.10;;;1.93;;
14276;SDS011;7222;57.346;12.150;2022-09-09T04:18:17;2.50;;;2.13;;
14276;SDS011;7222;57.346;12.150;2022-09-09T04:20:45;4.00;;;2.10;;
14276;SDS011;7222;57.346;12.150;2022-09-09T04:23:12;3.30;;;1.80;;
14276;SDS011;7222;57.346;12.150;2022-09-09T04:25:44;3.40;;;2.13;;
14276;SDS011;7222;57.346;12.150;2022-09-09T04:28:12;2.80;;;1.80;;
14276;SDS011;7222;57.346;12.150;2022-09-09T04:30:39;2.53;;;1.77;;
14276;SDS011;7222;57.346;12.150;2022-09-09T04:33:06;2.90;;;1.83;;
14276;SDS011;7222;57.346;12.150;2022-09-09T04:35:34;1.97;;;1.83;;
14276;SDS011;7222;57.346;12.150;2022-09-09T04:38:02;3.60;;;1.77;;
14276;SDS011;7222;57.346;12.150;2022-09-09T04:40:29;2.47;;;2.03;;
14276;SDS011;7222;57.346;12.150;2022-09-09T04:42:58;3.47;;;2.00;;
14276;SDS011;7222;57.346;12.150;2022-09-09T04:45:26;3.10;;;1.90;;
14276;SDS011;7222;57.346;12.150;2022-09-09T04:47:53;2.57;;;1.80;;
14276;SDS011;7222;57.346;12.150;2022-09-09T04:50:20;2.67;;;2.20;;
14276;SDS011;7222;57.346;12.150;2022-09-09T04:52:47;2.80;;;2.07;;
14276;SDS011;7222;57.346;12.150;2022-09-09T04:55:14;3.23;;;2.27;;
14276;SDS011;7222;57.346;12.150;2022-09-09T04:57:41;5.40;;;2.27;;
14276;SDS011;7222;57.346;12.150;2022-09-09T05:00:10;2.03;;;1.63;;
14276;SDS011;7222;57.346;12.150;2022-09-09T05:02:38;4.70;;;2.00;;
14276;SDS011;7222;57.346;12.150;2022-09-09T05:05:07;3.03;;;2.20;;
14276;SDS011;7222;57.346;12.150;2022-09-09T05:07:36;2.03;;;1.77;;
14276;SDS011;7222;57.346;12.150;2022-09-09T05:10:03;3.47;;;2.00;;
14276;SDS011;7222;57.346;12.150;2022-09-09T05:12:31;2.50;;;1.77;;
14276;SDS011;7222;57.346;12.150;2022-09-09T05:14:58;2.40;;;2.20;;
14276;SDS011;7222;57.346;12.150;2022-09-09T05:17:26;3.53;;;2.07;;
14276;SDS011;7222;57.346;12.150;2022-09-09T05:19:53;3.43;;;2.17;;
14276;SDS011;7222;57.346;12.150;2022-09-09T05:22:20;3.23;;;2.07;;
14276;SDS011;7222;57.346;12.150;2022-09-09T05:24:48;3.57;;;2.40;;
14276;SDS011;7222;57.346;12.150;2022-09-09T05:27:15;4.73;;;2.07;;
14276;SDS011;7222;57.346;12.150;2022-09-09T05:29:44;1.97;;;1.87;;
14276;SDS011;7222;57.346;12.150;2022-09-09T05:32:11;2.47;;;2.00;;
14276;SDS011;7222;57.346;12.150;2022-09-09T05:34:41;4.20;;;2.07;;
14276;SDS011;7222;57.346;12.150;2022-09-09T05:37:08;2.40;;;2.20;;
14276;SDS011;7222;57.346;12.150;2022-09-09T05:39:35;3.80;;;2.40;;
14276;SDS011;7222;57.346;12.150;2022-09-09T05:42:03;2.40;;;2.00;;
14276;SDS011;7222;57.346;12.150;2022-09-09T05:44:30;2.33;;;2.13;;
14276;SDS011;7222;57.346;12.150;2022-09-09T05:46:57;3.37;;;2.50;;
14276;SDS011;7222;57.346;12.150;2022-09-09T05:49:24;2.33;;;2.13;;
14276;SDS011;7222;57.346;12.150;2022-09-09T05:51:53;2.63;;;1.90;;
14276;SDS011;7222;57.346;12.150;2022-09-09T05:54:20;2.20;;;2.00;;
14276;SDS011;7222;57.346;12.150;2022-09-09T05:56:47;3.03;;;2.10;;
14276;SDS011;7222;57.346;12.150;2022-09-09T05:59:14;2.37;;;2.17;;
14276;SDS011;7222;57.346;12.150;2022-09-09T06:01:41;3.33;;;2.33;;
14276;SDS011;7222;57.346;12.150;2022-09-09T06:04:10;3.20;;;2.73;;
14276;SDS011;7222;57.346;12.150;2022-09-09T06:06:37;3.10;;;2.00;;
14276;SDS011;7222;57.346;12.150;2022-09-09T06:09:07;4.10;;;2.43;;
14276;SDS011;7222;57.346;12.150;2022-09-09T06:11:36;2.23;;;1.97;;
14276;SDS011;7222;57.346;12.150;2022-09-09T06:14:04;3.50;;;2.30;;
14276;SDS011;7222;57.346;12.150;2022-09-09T06:16:31;4.77;;;2.87;;
14276;SDS011;7222;57.346;12.150;2022-09-09T06:18:59;3.77;;;2.50;;
14276;SDS011;7222;57.346;12.150;2022-09-09T06:21:28;3.17;;;2.03;;
14276;SDS011;7222;57.346;12.150;2022-09-09T06:23:57;2.03;;;1.93;;
14276;SDS011;7222;57.346;12.150;2022-09-09T06:26:27;5.10;;;2.63;;
14276;SDS011;7222;57.346;12.150;2022-09-09T06:28:55;3.77;;;2.17;;
14276;SDS011;7222;57.346;12.150;2022-09-09T06:31:24;3.30;;;2.60;;
14276;SDS011;7222;57.346;12.150;2022-09-09T06:33:52;4.50;;;2.60;;
14276;SDS011;7222;57.346;12.150;2022-09-09T06:36:20;2.50;;;2.30;;
14276;SDS011;7222;57.346;12.150;2022-09-09T06:38:49;5.13;;;2.63;;
14276;SDS011;7222;57.346;12.150;2022-09-09T06:41:17;5.63;;;2.43;;
14276;SDS011;7222;57.346;12.150;2022-09-09T06:43:47;3.30;;;2.43;;
14276;SDS011;7222;57.346;12.150;2022-09-09T06:46:15;4.23;;;2.00;;
14276;SDS011;7222;57.346;12.150;2022-09-09T06:48:43;3.10;;;2.50;;
14276;SDS011;7222;57.346;12.150;2022-09-09T06:51:11;2.30;;;2.10;;
14276;SDS011;7222;57.346;12.150;2022-09-09T06:53:40;4.53;;;2.53;;
14276;SDS011;7222;57.346;12.150;2022-09-09T06:56:19;3.23;;;2.20;;
14276;SDS011;7222;57.346;12.150;2022-09-09T06:58:49;2.83;;;2.20;;
14276;SDS011;7222;57.346;12.150;2022-09-09T07:01:18;2.50;;;2.30;;
14276;SDS011;7222;57.346;12.150;2022-09-09T07:03:47;2.93;;;2.33;;
14276;SDS011;7222;57.346;12.150;2022-09-09T07:06:17;3.43;;;2.67;;
14276;SDS011;7222;57.346;12.150;2022-09-09T07:08:48;4.03;;;2.30;;
14276;SDS011;7222;57.346;12.150;2022-09-09T07:11:16;2.53;;;1.87;;
14276;SDS011;7222;57.346;12.150;2022-09-09T07:13:44;4.43;;;2.40;;
14276;SDS011;7222;57.346;12.150;2022-09-09T07:16:13;3.40;;;2.20;;
14276;SDS011;7222;57.346;12.150;2022-09-09T07:18:41;2.30;;;2.10;;
14276;SDS011;7222;57.346;12.150;2022-09-09T07:21:09;2.30;;;2.03;;
14276;SDS011;7222;57.346;12.150;2022-09-09T07:23:37;4.77;;;2.50;;
14276;SDS011;7222;57.346;12.150;2022-09-09T07:26:07;2.60;;;2.40;;
14276;SDS011;7222;57.346;12.150;2022-09-09T07:28:35;3.70;;;2.50;;
14276;SDS011;7222;57.346;12.150;2022-09-09T07:31:03;5.73;;;2.77;;
14276;SDS011;7222;57.346;12.150;2022-09-09T07:33:33;4.37;;;2.50;;
14276;SDS011;7222;57.346;12.150;2022-09-09T07:36:02;3.90;;;2.63;;
14276;SDS011;7222;57.346;12.150;2022-09-09T07:38:30;5.33;;;2.50;;
14276;SDS011;7222;57.346;12.150;2022-09-09T07:41:02;4.30;;;2.80;;
14276;SDS011;7222;57.346;12.150;2022-09-09T07:43:32;2.63;;;2.30;;
14276;SDS011;7222;57.346;12.150;2022-09-09T07:45:59;3.87;;;2.67;;
14276;SDS011;7222;57.346;12.150;2022-09-09T07:48:27;4.37;;;2.50;;
14276;SDS011;7222;57.346;12.150;2022-09-09T07:51:04;3.00;;;2.47;;
14276;SDS011;7222;57.346;12.150;2022-09-09T07:53:32;3.43;;;2.57;;
14276;SDS011;7222;57.346;12.150;2022-09-09T07:56:04;5.87;;;2.77;;
14276;SDS011;7222;57.346;12.150;2022-09-09T07:58:34;3.27;;;2.90;;
14276;SDS011;7222;57.346;12.150;2022-09-09T08:01:05;3.03;;;2.73;;
14276;SDS011;7222;57.346;12.150;2022-09-09T08:03:33;2.83;;;2.40;;
14276;SDS011;7222;57.346;12.150;2022-09-09T08:06:01;4.03;;;3.07;;
14276;SDS011;7222;57.346;12.150;2022-09-09T08:08:32;3.77;;;2.87;;
14276;SDS011;7222;57.346;12.150;2022-09-09T08:11:03;5.67;;;2.73;;
14276;SDS011;7222;57.346;12.150;2022-09-09T08:13:31;5.53;;;2.90;;
14276;SDS011;7222;57.346;12.150;2022-09-09T08:16:08;4.13;;;2.77;;
14276;SDS011;7222;57.346;12.150;2022-09-09T08:18:37;4.10;;;2.60;;
14276;SDS011;7222;57.346;12.150;2022-09-09T08:21:06;3.30;;;2.77;;
14276;SDS011;7222;57.346;12.150;2022-09-09T08:23:37;3.93;;;2.73;;
14276;SDS011;7222;57.346;12.150;2022-09-09T08:26:09;3.00;;;2.50;;
14276;SDS011;7222;57.346;12.150;2022-09-09T08:28:37;3.57;;;2.87;;
14276;SDS011;7222;57.346;12.150;2022-09-09T08:31:09;3.37;;;2.60;;
14276;SDS011;7222;57.346;12.150;2022-09-09T08:33:38;4.70;;;3.30;;
14276;SDS011;7222;57.346;12.150;2022-09-09T08:36:08;4.77;;;3.00;;
14276;SDS011;7222;57.346;12.150;2022-09-09T08:38:37;6.13;;;2.87;;
14276;SDS011;7222;57.346;12.150;2022-09-09T08:41:16;4.40;;;3.20;;
14276;SDS011;7222;57.346;12.150;2022-09-09T08:44:02;3.27;;;2.97;;
14276;SDS011;7222;57.346;12.150;2022-09-09T08:46:34;6.40;;;3.13;;
14276;SDS011;7222;57.346;12.150;2022-09-09T08:49:13;4.03;;;3.13;;
14276;SDS011;7222;57.346;12.150;2022-09-09T08:51:52;3.80;;;2.87;;
14276;SDS011;7222;57.346;12.150;2022-09-09T08:54:21;5.10;;;3.27;;
14276;SDS011;7222;57.346;12.150;2022-09-09T08:56:49;5.20;;;3.20;;
14276;SDS011;7222;57.346;12.150;2022-09-09T08:59:17;4.53;;;2.87;;
14276;SDS011;7222;57.346;12.150;2022-09-09T09:01:53;5.50;;;3.67;;
14276;SDS011;7222;57.346;12.150;2022-09-09T09:04:31;3.63;;;2.77;;
14276;SDS011;7222;57.346;12.150;2022-09-09T09:07:11;3.73;;;2.67;;
14276;SDS011;7222;57.346;12.150;2022-09-09T09:09:50;4.03;;;2.87;;
14276;SDS011;7222;57.346;12.150;2022-09-09T09:12:27;4.80;;;2.80;;
14276;SDS011;7222;57.346;12.150;2022-09-09T11:25:22;5.50;;;4.10;;
14276;SDS011;7222;57.346;12.150;2022-09-09T11:27:59;5.33;;;3.80;;
14276;SDS011;7222;57.346;12.150;2022-09-09T11:30:38;4.07;;;3.67;;
14276;SDS011;7222;57.346;12.150;2022-09-09T11:33:21;6.13;;;4.23;;
14276;SDS011;7222;57.346;12.150;2022-09-09T11:36:23;4.03;;;3.10;;
14276;SDS011;7222;57.346;12.150;2022-09-09T11:39:18;3.60;;;3.30;;
14276;SDS011;7222;57.346;12.150;2022-09-09T11:42:12;5.07;;;3.63;;
14276;SDS011;7222;57.346;12.150;2022-09-09T11:44:43;3.27;;;2.93;;
14276;SDS011;7222;57.346;12.150;2022-09-09T11:47:16;3.67;;;3.30;;
14276;SDS011;7222;57.346;12.150;2022-09-09T11:49:49;4.07;;;3.13;;
14276;SDS011;7222;57.346;12.150;2022-09-09T11:52:20;4.70;;;3.77;;
14276;SDS011;7222;57.346;12.150;2022-09-09T11:54:50;7.83;;;4.00;;
14276;SDS011;7222;57.346;12.150;2022-09-09T11:57:24;4.47;;;3.80;;
14276;SDS011;7222;57.346;12.150;2022-09-09T11:59:58;3.50;;;3.10;;
14276;SDS011;7222;57.346;12.150;2022-09-09T12:02:26;6.00;;;4.07;;
14276;SDS011;7222;57.346;12.150;2022-09-09T12:04:57;4.00;;;3.03;;
14276;SDS011;7222;57.346;12.150;2022-09-09T12:07:34;4.20;;;3.70;;
14276;SDS011;7222;57.346;12.150;2022-09-09T12:10:06;3.30;;;3.00;;
14276;SDS011;7222;57.346;12.150;2022-09-09T12:12:49;5.97;;;3.23;;
14276;SDS011;7222;57.346;12.150;2022-09-09T12:15:18;5.10;;;3.70;;
14276;SDS011;7222;57.346;12.150;2022-09-09T12:17:48;3.73;;;3.13;;
14276;SDS011;7222;57.346;12.150;2022-09-09T12:20:18;3.27;;;3.00;;
14276;SDS011;7222;57.346;12.150;2022-09-09T12:22:58;3.73;;;3.40;;
14276;SDS011;7222;57.346;12.150;2022-09-09T12:25:46;3.53;;;2.93;;
14276;SDS011;7222;57.346;12.150;2022-09-09T12:28:22;3.73;;;3.40;;
14276;SDS011;7222;57.346;12.150;2022-09-09T12:30:55;3.33;;;3.03;;
14276;SDS011;7222;57.346;12.150;2022-09-09T12:33:33;3.90;;;3.10;;
14276;SDS011;7222;57.346;12.150;2022-09-09T12:36:01;5.37;;;3.47;;
14276;SDS011;7222;57.346;12.150;2022-09-09T12:38:31;3.40;;;3.10;;
14276;SDS011;7222;57.346;12.150;2022-09-09T12:41:01;4.30;;;3.10;;
14276;SDS011;7222;57.346;12.150;2022-09-09T12:43:30;3.27;;;2.93;;
14276;SDS011;7222;57.346;12.150;2022-09-09T12:45:58;3.43;;;3.13;;
14276;SDS011;7222;57.346;12.150;2022-09-09T12:48:30;3.50;;;2.87;;
14276;SDS011;7222;57.346;12.150;2022-09-09T12:51:01;3.30;;;3.00;;
14276;SDS011;7222;57.346;12.150;2022-09-09T12:53:31;4.60;;;2.83;;
14276;SDS011;7222;57.346;12.150;2022-09-09T12:56:01;3.07;;;2.83;;
14276;SDS011;7222;57.346;12.150;2022-09-09T12:58:35;3.07;;;2.83;;
14276;SDS011;7222;57.346;12.150;2022-09-09T13:01:04;2.60;;;2.40;;
14276;SDS011;7222;57.346;12.150;2022-09-09T13:03:31;3.17;;;2.70;;
14276;SDS011;7222;57.346;12.150;2022-09-09T13:06:10;5.13;;;2.70;;
14276;SDS011;7222;57.346;12.150;2022-09-09T13:08:39;2.50;;;2.30;;
14276;SDS011;7222;57.346;12.150;2022-09-09T13:11:07;3.43;;;2.77;;
14276;SDS011;7222;57.346;12.150;2022-09-09T13:13:40;3.80;;;2.53;;
14276;SDS011;7222;57.346;12.150;2022-09-09T13:16:18;3.10;;;2.37;;
14276;SDS011;7222;57.346;12.150;2022-09-09T13:18:48;3.27;;;2.50;;
14276;SDS011;7222;57.346;12.150;2022-09-09T13:21:15;3.00;;;2.50;;
14276;SDS011;7222;57.346;12.150;2022-09-09T13:23:47;3.53;;;2.43;;
14276;SDS011;7222;57.346;12.150;2022-09-09T13:26:20;2.80;;;2.50;;
14276;SDS011;7222;57.346;12.150;2022-09-09T13:28:50;2.73;;;2.50;;
14276;SDS011;7222;57.346;12.150;2022-09-09T13:31:22;2.83;;;2.63;;
14276;SDS011;7222;57.346;12.150;2022-09-09T13:33:52;3.20;;;2.43;;
14276;SDS011;7222;57.346;12.150;2022-09-09T13:36:27;2.20;;;2.00;;
14276;SDS011;7222;57.346;12.150;2022-09-09T13:38:56;3.23;;;2.20;;
14276;SDS011;7222;57.346;12.150;2022-09-09T13:41:28;2.50;;;2.30;;
14276;SDS011;7222;57.346;12.150;2022-09-09T13:44:01;2.10;;;2.00;;
14276;SDS011;7222;57.346;12.150;2022-09-09T13:46:32;2.77;;;2.00;;
14276;SDS011;7222;57.346;12.150;2022-09-09T13:49:02;2.37;;;2.10;;
14276;SDS011;7222;57.346;12.150;2022-09-09T13:51:46;2.07;;;1.93;;
14276;SDS011;7222;57.346;12.150;2022-09-09T13:54:16;2.43;;;2.23;;
14276;SDS011;7222;57.346;12.150;2022-09-09T13:56:44;2.40;;;2.20;;
14276;SDS011;7222;57.346;12.150;2022-09-09T13:59:16;2.27;;;2.10;;
14276;SDS011;7222;57.346;12.150;2022-09-09T14:01:46;1.93;;;1.83;;
14276;SDS011;7222;57.346;12.150;2022-09-09T14:04:14;3.70;;;2.00;;
14276;SDS011;7222;57.346;12.150;2022-09-09T14:06:41;2.30;;;2.10;;
14276;SDS011;7222;57.346;12.150;2022-09-09T14:09:09;2.40;;;2.17;;
14276;SDS011;7222;57.346;12.150;2022-09-09T14:11:38;3.53;;;2.17;;
14276;SDS011;7222;57.346;12.150;2022-09-09T14:14:06;2.30;;;2.10;;
14276;SDS011;7222;57.346;12.150;2022-09-09T14:16:34;2.40;;;2.03;;
14276;SDS011;7222;57.346;12.150;2022-09-09T14:19:02;2.33;;;2.17;;
14276;SDS011;7222;57.346;12.150;2022-09-09T14:21:30;2.73;;;1.83;;
14276;SDS011;7222;57.346;12.150;2022-09-09T14:23:57;2.57;;;1.87;;
14276;SDS011;7222;57.346;12.150;2022-09-09T14:26:24;2.10;;;2.00;;
14276;SDS011;7222;57.346;12.150;2022-09-09T14:28:54;2.30;;;2.10;;
14276;SDS011;7222;57.346;12.150;2022-09-09T14:31:21;2.10;;;2.00;;
14276;SDS011;7222;57.346;12.150;2022-09-09T14:33:50;2.10;;;1.80;;
14276;SDS011;7222;57.346;12.150;2022-09-09T14:36:17;2.10;;;1.90;;
14276;SDS011;7222;57.346;12.150;2022-09-09T14:38:45;2.07;;;1.97;;
14276;SDS011;7222;57.346;12.150;2022-09-09T14:41:13;2.17;;;1.87;;
14276;SDS011;7222;57.346;12.150;2022-09-09T14:43:42;1.77;;;1.67;;
14276;SDS011;7222;57.346;12.150;2022-09-09T14:46:09;1.73;;;1.63;;
14276;SDS011;7222;57.346;12.150;2022-09-09T14:48:38;1.80;;;1.70;;
14276;SDS011;7222;57.346;12.150;2022-09-09T14:51:08;1.80;;;1.70;;
14276;SDS011;7222;57.346;12.150;2022-09-09T14:53:38;2.00;;;1.70;;
14276;SDS011;7222;57.346;12.150;2022-09-09T14:56:06;1.97;;;1.70;;
14276;SDS011;7222;57.346;12.150;2022-09-09T14:58:34;2.07;;;1.90;;
14276;SDS011;7222;57.346;12.150;2022-09-09T15:01:03;1.60;;;1.50;;
14276;SDS011;7222;57.346;12.150;2022-09-09T15:03:32;1.80;;;1.70;;
14276;SDS011;7222;57.346;12.150;2022-09-09T15:06:04;1.43;;;1.37;;
14276;SDS011;7222;57.346;12.150;2022-09-09T15:08:47;1.83;;;1.73;;
14276;SDS011;7222;57.346;12.150;2022-09-09T15:11:16;1.60;;;1.50;;
14276;SDS011;7222;57.346;12.150;2022-09-09T15:13:43;1.80;;;1.70;;
14276;SDS011;7222;57.346;12.150;2022-09-09T15:16:11;1.73;;;1.40;;
14276;SDS011;7222;57.346;12.150;2022-09-09T15:18:40;1.70;;;1.60;;
14276;SDS011;7222;57.346;12.150;2022-09-09T15:21:08;2.50;;;1.80;;
14276;SDS011;7222;57.346;12.150;2022-09-09T15:23:36;1.43;;;1.30;;
14276;SDS011;7222;57.346;12.150;2022-09-09T15:26:11;1.53;;;1.43;;
14276;SDS011;7222;57.346;12.150;2022-09-09T15:28:39;1.40;;;1.30;;
14276;SDS011;7222;57.346;12.150;2022-09-09T15:31:09;2.13;;;1.30;;
14276;SDS011;7222;57.346;12.150;2022-09-09T15:33:39;1.80;;;1.43;;
14276;SDS011;7222;57.346;12.150;2022-09-09T15:36:13;1.70;;;1.47;;
14276;SDS011;7222;57.346;12.150;2022-09-09T15:38:42;1.50;;;1.40;;
14276;SDS011;7222;57.346;12.150;2022-09-09T15:41:09;1.63;;;1.53;;
14276;SDS011;7222;57.346;12.150;2022-09-09T15:43:39;1.33;;;1.33;;
14276;SDS011;7222;57.346;12.150;2022-09-09T15:46:21;1.47;;;1.40;;
14276;SDS011;7222;57.346;12.150;2022-09-09T15:48:51;1.40;;;1.27;;
14276;SDS011;7222;57.346;12.150;2022-09-09T15:51:19;1.33;;;1.33;;
14276;SDS011;7222;57.346;12.150;2022-09-09T15:53:46;1.50;;;1.40;;
14276;SDS011;7222;57.346;12.150;2022-09-09T15:56:15;1.30;;;1.20;;
14276;SDS011;7222;57.346;12.150;2022-09-09T15:58:42;1.30;;;1.20;;
14276;SDS011;7222;57.346;12.150;2022-09-09T16:01:09;1.57;;;1.47;;
14276;SDS011;7222;57.346;12.150;2022-09-09T16:03:38;1.30;;;1.23;;
14276;SDS011;7222;57.346;12.150;2022-09-09T16:06:06;1.70;;;1.40;;
14276;SDS011;7222;57.346;12.150;2022-09-09T16:08:36;2.80;;;1.23;;
14276;SDS011;7222;57.346;12.150;2022-09-09T16:11:05;1.33;;;1.20;;
14276;SDS011;7222;57.346;12.150;2022-09-09T16:16:37;1.50;;;1.40;;
14276;SDS011;7222;57.346;12.150;2022-09-09T16:19:06;1.77;;;1.20;;
14276;SDS011;7222;57.346;12.150;2022-09-09T16:21:35;1.40;;;1.30;;
14276;SDS011;7222;57.346;12.150;2022-09-09T16:24:05;1.03;;;1.03;;
14276;SDS011;7222;57.346;12.150;2022-09-09T16:26:33;2.07;;;1.47;;
14276;SDS011;7222;57.346;12.150;2022-09-09T16:29:02;1.00;;;1.00;;
14276;SDS011;7222;57.346;12.150;2022-09-09T16:31:45;1.20;;;1.10;;
14276;SDS011;7222;57.346;12.150;2022-09-09T16:34:13;1.30;;;1.20;;
14276;SDS011;7222;57.346;12.150;2022-09-09T16:36:43;1.13;;;1.10;;
14276;SDS011;7222;57.346;12.150;2022-09-09T16:39:12;2.20;;;1.20;;
14276;SDS011;7222;57.346;12.150;2022-09-09T16:41:41;1.20;;;1.20;;
14276;SDS011;7222;57.346;12.150;2022-09-09T16:44:10;1.63;;;1.30;;
14276;SDS011;7222;57.346;12.150;2022-09-09T16:46:39;1.30;;;1.20;;
14276;SDS011;7222;57.346;12.150;2022-09-09T16:49:08;1.23;;;1.13;;
14276;SDS011;7222;57.346;12.150;2022-09-09T16:51:37;1.53;;;1.37;;
14276;SDS011;7222;57.346;12.150;2022-09-09T16:54:06;1.37;;;1.30;;
14276;SDS011;7222;57.346;12.150;2022-09-09T16:56:35;1.03;;;1.03;;
14276;SDS011;7222;57.346;12.150;2022-09-09T16:59:07;1.30;;;1.30;;
14276;SDS011;7222;57.346;12.150;2022-09-09T17:01:36;1.20;;;1.20;;
14276;SDS011;7222;57.346;12.150;2022-09-09T17:04:21;1.23;;;1.13;;
14276;SDS011;7222;57.346;12.150;2022-09-09T17:07:22;1.70;;;1.10;;
14276;SDS011;7222;57.346;12.150;2022-09-09T17:09:50;1.93;;;1.37;;
14276;SDS011;7222;57.346;12.150;2022-09-09T17:12:23;1.97;;;1.43;;
14276;SDS011;7222;57.346;12.150;2022-09-09T17:14:51;2.47;;;1.40;;
14276;SDS011;7222;57.346;12.150;2022-09-09T17:17:20;1.27;;;1.20;;
14276;SDS011;7222;57.346;12.150;2022-09-09T17:19:49;1.50;;;1.40;;
14276;SDS011;7222;57.346;12.150;2022-09-09T17:22:16;1.20;;;1.10;;
14276;SDS011;7222;57.346;12.150;2022-09-09T17:24:45;1.40;;;1.30;;
14276;SDS011;7222;57.346;12.150;2022-09-09T17:27:12;1.37;;;1.27;;